sensor_id;sensor_type;location;lat;lon;timestamp;pressure;altitude;pressure_sealevel;temperature;humidity
64064;BME280;50314;50.618;10.642;2022-08-21T00:00:44;96767.59;;;22.78;28.70
64064;BME280;50314;50.618;10.642;2022-08-21T00:03:11;96770.28;;;22.78;28.15
64064;BME280;50314;50.618;10.642;2022-08-21T00:05:48;96778.06;;;22.73;28.76
64064;BME280;50314;50.618;10.642;2022-08-21T00:08:16;96768.63;;;22.77;28.37
64064;BME280;50314;50.618;10.642;2022-08-21T00:10:43;96764.28;;;22.76;28.11
64064;BME280;50314;50.618;10.642;2022-08-21T00:13:10;96760.75;;;22.75;28.30
64064;BME280;50314;50.618;10.642;2022-08-21T00:15:37;96760.94;;;22.74;28.32
64064;BME280;50314;50.618;10.642;2022-08-21T00:18:05;96759.09;;;22.74;28.32
64064;BME280;50314;50.618;10.642;2022-08-21T00:20:32;96755.56;;;22.74;28.24
64064;BME280;50314;50.618;10.642;2022-08-21T00:22:58;96753.91;;;22.73;28.25
64064;BME280;50314;50.618;10.642;2022-08-21T00:25:23;96754.75;;;22.73;28.43
64064;BME280;50314;50.618;10.642;2022-08-21T00:27:49;96753.91;;;22.73;28.29
64064;BME280;50314;50.618;10.642;2022-08-21T00:30:16;96752.22;;;22.72;28.16
64064;BME280;50314;50.618;10.642;2022-08-21T00:32:42;96756.78;;;22.71;28.13
64064;BME280;50314;50.618;10.642;2022-08-21T00:35:10;96757.97;;;22.69;28.36
64064;BME280;50314;50.618;10.642;2022-08-21T00:37:37;96753.84;;;22.66;27.76
64064;BME280;50314;50.618;10.642;2022-08-21T00:40:03;96751.69;;;22.62;28.07
64064;BME280;50314;50.618;10.642;2022-08-21T00:42:29;96750.25;;;22.59;28.04
64064;BME280;50314;50.618;10.642;2022-08-21T00:44:56;96757.66;;;22.57;28.14
64064;BME280;50314;50.618;10.642;2022-08-21T00:47:21;96749.59;;;22.57;27.79
64064;BME280;50314;50.618;10.642;2022-08-21T00:49:47;96754.97;;;22.57;27.86
64064;BME280;50314;50.618;10.642;2022-08-21T00:52:20;96759.66;;;22.55;28.50
64064;BME280;50314;50.618;10.642;2022-08-21T00:54:48;96745.06;;;22.58;28.28
64064;BME280;50314;50.618;10.642;2022-08-21T00:57:17;96750.41;;;22.58;28.20
64064;BME280;50314;50.618;10.642;2022-08-21T00:59:47;96752.44;;;22.56;27.99
64064;BME280;50314;50.618;10.642;2022-08-21T01:02:16;96754.97;;;22.57;28.41
64064;BME280;50314;50.618;10.642;2022-08-21T01:04:41;96759.50;;;22.57;28.04
64064;BME280;50314;50.618;10.642;2022-08-21T01:07:07;96753.47;;;22.55;28.03
64064;BME280;50314;50.618;10.642;2022-08-21T01:09:33;96760.50;;;22.56;28.17
64064;BME280;50314;50.618;10.642;2022-08-21T01:11:59;96754.50;;;22.54;28.60
64064;BME280;50314;50.618;10.642;2022-08-21T01:14:25;96768.75;;;22.54;28.49
64064;BME280;50314;50.618;10.642;2022-08-21T01:16:52;96757.19;;;22.54;28.32
64064;BME280;50314;50.618;10.642;2022-08-21T01:19:20;96767.28;;;22.51;28.16
64064;BME280;50314;50.618;10.642;2022-08-21T01:21:46;96753.03;;;22.51;28.56
64064;BME280;50314;50.618;10.642;2022-08-21T01:24:12;96758.59;;;22.49;28.08
64064;BME280;50314;50.618;10.642;2022-08-21T01:26:38;96755.72;;;22.51;28.32
64064;BME280;50314;50.618;10.642;2022-08-21T01:29:29;96756.28;;;22.46;28.77
64064;BME280;50314;50.618;10.642;2022-08-21T01:31:56;96756.91;;;22.48;28.30
64064;BME280;50314;50.618;10.642;2022-08-21T01:34:22;96753.59;;;22.46;28.30
64064;BME280;50314;50.618;10.642;2022-08-21T01:36:47;96749.22;;;22.45;28.28
64064;BME280;50314;50.618;10.642;2022-08-21T01:39:13;96753.59;;;22.46;28.42
64064;BME280;50314;50.618;10.642;2022-08-21T01:41:39;96759.97;;;22.45;28.54
64064;BME280;50314;50.618;10.642;2022-08-21T01:44:05;96758.31;;;22.44;28.24
64064;BME280;50314;50.618;10.642;2022-08-21T01:46:30;96761.81;;;22.45;28.11
64064;BME280;50314;50.618;10.642;2022-08-21T01:48:56;96765.53;;;22.44;28.39
64064;BME280;50314;50.618;10.642;2022-08-21T01:51:21;96758.50;;;22.43;28.52
64064;BME280;50314;50.618;10.642;2022-08-21T01:53:47;96757.69;;;22.42;28.59
64064;BME280;50314;50.618;10.642;2022-08-21T01:56:15;96767.75;;;22.40;28.33
64064;BME280;50314;50.618;10.642;2022-08-21T01:58:44;96766.94;;;22.40;28.68
64064;BME280;50314;50.618;10.642;2022-08-21T02:01:09;96760.75;;;22.39;28.28
64064;BME280;50314;50.618;10.642;2022-08-21T02:03:35;96761.09;;;22.36;28.19
64064;BME280;50314;50.618;10.642;2022-08-21T02:06:00;96762.97;;;22.36;28.43
64064;BME280;50314;50.618;10.642;2022-08-21T02:08:28;96757.59;;;22.36;28.58
64064;BME280;50314;50.618;10.642;2022-08-21T02:10:53;96752.22;;;22.36;28.33
64064;BME280;50314;50.618;10.642;2022-08-21T02:13:19;96744.19;;;22.36;28.47
64064;BME280;50314;50.618;10.642;2022-08-21T02:15:45;96746.00;;;22.35;28.25
64064;BME280;50314;50.618;10.642;2022-08-21T02:18:11;96741.66;;;22.34;28.43
64064;BME280;50314;50.618;10.642;2022-08-21T02:20:40;96739.19;;;22.33;28.50
64064;BME280;50314;50.618;10.642;2022-08-21T02:23:07;96735.69;;;22.32;28.55
64064;BME280;50314;50.618;10.642;2022-08-21T02:25:34;96731.13;;;22.33;28.58
64064;BME280;50314;50.618;10.642;2022-08-21T02:28:03;96729.41;;;22.32;28.60
64064;BME280;50314;50.618;10.642;2022-08-21T02:30:32;96717.88;;;22.31;28.70
64064;BME280;50314;50.618;10.642;2022-08-21T02:32:58;96720.53;;;22.31;28.47
64064;BME280;50314;50.618;10.642;2022-08-21T02:35:24;96716.22;;;22.30;28.07
64064;BME280;50314;50.618;10.642;2022-08-21T02:37:53;96711.00;;;22.28;28.54
64064;BME280;50314;50.618;10.642;2022-08-21T02:40:22;96712.88;;;22.28;28.49
64064;BME280;50314;50.618;10.642;2022-08-21T02:42:48;96711.22;;;22.27;28.23
64064;BME280;50314;50.618;10.642;2022-08-21T02:45:14;96710.56;;;22.25;28.22
64064;BME280;50314;50.618;10.642;2022-08-21T02:47:46;96723.97;;;22.25;28.44
64064;BME280;50314;50.618;10.642;2022-08-21T02:50:12;96722.31;;;22.24;28.47
64064;BME280;50314;50.618;10.642;2022-08-21T02:52:37;96723.34;;;22.23;28.21
64064;BME280;50314;50.618;10.642;2022-08-21T02:55:03;96719.63;;;22.24;28.64
64064;BME280;50314;50.618;10.642;2022-08-21T02:57:30;96717.31;;;22.21;28.18
64064;BME280;50314;50.618;10.642;2022-08-21T02:59:57;96717.53;;;22.19;28.34
64064;BME280;50314;50.618;10.642;2022-08-21T03:02:22;96715.84;;;22.18;28.46
64064;BME280;50314;50.618;10.642;2022-08-21T03:04:48;96709.84;;;22.16;28.46
64064;BME280;50314;50.618;10.642;2022-08-21T03:07:14;96717.06;;;22.16;28.35
64064;BME280;50314;50.618;10.642;2022-08-21T03:09:40;96717.25;;;22.14;28.18
64064;BME280;50314;50.618;10.642;2022-08-21T03:12:05;96712.91;;;22.13;28.18
64064;BME280;50314;50.618;10.642;2022-08-21T03:14:31;96717.44;;;22.13;28.29
64064;BME280;50314;50.618;10.642;2022-08-21T03:16:56;96718.44;;;22.12;28.49
64064;BME280;50314;50.618;10.642;2022-08-21T03:19:22;96722.16;;;22.11;28.10
64064;BME280;50314;50.618;10.642;2022-08-21T03:21:47;96718.84;;;22.09;28.32
64064;BME280;50314;50.618;10.642;2022-08-21T03:24:12;96715.50;;;22.07;28.19
64064;BME280;50314;50.618;10.642;2022-08-21T03:26:38;96714.66;;;22.06;28.51
64064;BME280;50314;50.618;10.642;2022-08-21T03:29:04;96706.78;;;22.04;28.54
64064;BME280;50314;50.618;10.642;2022-08-21T03:31:30;96717.50;;;22.04;28.17
64064;BME280;50314;50.618;10.642;2022-08-21T03:33:57;96715.69;;;22.05;28.38
64064;BME280;50314;50.618;10.642;2022-08-21T03:36:23;96711.53;;;22.02;28.16
64064;BME280;50314;50.618;10.642;2022-08-21T03:38:49;96713.38;;;22.02;28.48
64064;BME280;50314;50.618;10.642;2022-08-21T03:41:14;96712.53;;;22.01;28.42
64064;BME280;50314;50.618;10.642;2022-08-21T03:43:40;96711.91;;;21.99;28.45
64064;BME280;50314;50.618;10.642;2022-08-21T03:46:06;96714.56;;;21.99;28.31
64064;BME280;50314;50.618;10.642;2022-08-21T03:48:33;96720.97;;;21.98;28.49
64064;BME280;50314;50.618;10.642;2022-08-21T03:50:59;96722.16;;;21.96;28.16
64064;BME280;50314;50.618;10.642;2022-08-21T03:53:24;96724.00;;;21.95;28.19
64064;BME280;50314;50.618;10.642;2022-08-21T03:55:51;96724.00;;;21.95;28.29
64064;BME280;50314;50.618;10.642;2022-08-21T03:58:19;96721.50;;;21.94;28.34
64064;BME280;50314;50.618;10.642;2022-08-21T04:00:47;96726.41;;;21.90;28.20
64064;BME280;50314;50.618;10.642;2022-08-21T04:03:15;96729.28;;;21.89;28.25
64064;BME280;50314;50.618;10.642;2022-08-21T04:05:40;96728.44;;;21.88;28.31
64064;BME280;50314;50.618;10.642;2022-08-21T04:08:07;96726.75;;;21.87;28.40
64064;BME280;50314;50.618;10.642;2022-08-21T04:10:34;96729.81;;;21.84;28.50
64064;BME280;50314;50.618;10.642;2022-08-21T04:13:00;96738.06;;;21.83;28.49
64064;BME280;50314;50.618;10.642;2022-08-21T04:15:26;96738.22;;;21.81;28.25
64064;BME280;50314;50.618;10.642;2022-08-21T04:17:52;96739.91;;;21.82;28.28
64064;BME280;50314;50.618;10.642;2022-08-21T04:20:19;96746.94;;;21.83;28.45
64064;BME280;50314;50.618;10.642;2022-08-21T04:22:45;96744.59;;;21.80;28.32
64064;BME280;50314;50.618;10.642;2022-08-21T04:25:12;96751.00;;;21.79;28.33
64064;BME280;50314;50.618;10.642;2022-08-21T04:27:37;96751.81;;;21.79;28.33
64064;BME280;50314;50.618;10.642;2022-08-21T04:30:04;96746.63;;;21.78;28.33
64064;BME280;50314;50.618;10.642;2022-08-21T04:32:30;96753.00;;;21.77;28.47
64064;BME280;50314;50.618;10.642;2022-08-21T04:35:06;96757.06;;;21.73;28.53
64064;BME280;50314;50.618;10.642;2022-08-21T04:37:32;96757.88;;;21.73;28.29
64064;BME280;50314;50.618;10.642;2022-08-21T04:39:57;96761.59;;;21.72;28.13
64064;BME280;50314;50.618;10.642;2022-08-21T04:42:24;96767.97;;;21.71;28.33
64064;BME280;50314;50.618;10.642;2022-08-21T04:44:50;96763.59;;;21.70;28.32
64064;BME280;50314;50.618;10.642;2022-08-21T04:47:16;96766.47;;;21.69;28.21
64064;BME280;50314;50.618;10.642;2022-08-21T04:49:42;96776.16;;;21.70;28.49
64064;BME280;50314;50.618;10.642;2022-08-21T04:52:08;96775.50;;;21.68;28.37
64064;BME280;50314;50.618;10.642;2022-08-21T04:54:34;96780.88;;;21.68;28.24
64064;BME280;50314;50.618;10.642;2022-08-21T04:57:02;96784.22;;;21.70;28.50
64064;BME280;50314;50.618;10.642;2022-08-21T04:59:35;96781.53;;;21.70;28.32
64064;BME280;50314;50.618;10.642;2022-08-21T05:02:02;96788.75;;;21.69;28.34
64064;BME280;50314;50.618;10.642;2022-08-21T05:04:30;96787.09;;;21.68;28.18
64064;BME280;50314;50.618;10.642;2022-08-21T05:06:59;96795.75;;;21.70;28.26
64064;BME280;50314;50.618;10.642;2022-08-21T05:09:27;96787.91;;;21.69;28.12
64064;BME280;50314;50.618;10.642;2022-08-21T05:11:54;96790.59;;;21.69;28.03
64064;BME280;50314;50.618;10.642;2022-08-21T05:14:20;96792.25;;;21.70;28.16
64064;BME280;50314;50.618;10.642;2022-08-21T05:16:46;96794.94;;;21.70;28.22
64064;BME280;50314;50.618;10.642;2022-08-21T05:19:11;96801.78;;;21.72;28.16
64064;BME280;50314;50.618;10.642;2022-08-21T05:21:41;96799.94;;;21.73;28.09
64064;BME280;50314;50.618;10.642;2022-08-21T05:24:07;96804.09;;;21.75;28.08
64064;BME280;50314;50.618;10.642;2022-08-21T05:26:32;96797.06;;;21.74;27.92
64064;BME280;50314;50.618;10.642;2022-08-21T05:28:58;96801.25;;;21.77;28.02
64064;BME280;50314;50.618;10.642;2022-08-21T05:31:23;96800.44;;;21.76;28.25
64064;BME280;50314;50.618;10.642;2022-08-21T05:33:50;96800.91;;;21.80;27.97
64064;BME280;50314;50.618;10.642;2022-08-21T05:36:17;96807.91;;;21.81;27.87
64064;BME280;50314;50.618;10.642;2022-08-21T05:38:42;96805.78;;;21.76;28.09
64064;BME280;50314;50.618;10.642;2022-08-21T05:41:08;96807.56;;;21.84;27.84
64064;BME280;50314;50.618;10.642;2022-08-21T05:43:34;96801.19;;;21.85;27.83
64064;BME280;50314;50.618;10.642;2022-08-21T05:46:02;96801.00;;;21.87;27.80
64064;BME280;50314;50.618;10.642;2022-08-21T05:48:27;96801.47;;;21.90;27.90
64064;BME280;50314;50.618;10.642;2022-08-21T05:50:53;96800.28;;;21.93;27.93
64064;BME280;50314;50.618;10.642;2022-08-21T05:53:21;96802.75;;;21.94;27.86
64064;BME280;50314;50.618;10.642;2022-08-21T05:55:48;96793.72;;;21.95;27.96
64064;BME280;50314;50.618;10.642;2022-08-21T05:58:20;96798.78;;;21.90;27.93
64064;BME280;50314;50.618;10.642;2022-08-21T06:00:47;96798.72;;;21.98;27.77
64064;BME280;50314;50.618;10.642;2022-08-21T06:03:19;96803.69;;;22.01;27.42
64064;BME280;50314;50.618;10.642;2022-08-21T06:05:45;96798.81;;;22.05;27.69
64064;BME280;50314;50.618;10.642;2022-08-21T06:08:11;96784.84;;;22.10;27.64
64064;BME280;50314;50.618;10.642;2022-08-21T06:10:37;96789.03;;;22.12;27.56
64064;BME280;50314;50.618;10.642;2022-08-21T06:13:03;96787.78;;;22.15;27.54
64064;BME280;50314;50.618;10.642;2022-08-21T06:15:28;96791.97;;;22.17;27.31
64064;BME280;50314;50.618;10.642;2022-08-21T06:17:54;96799.66;;;22.20;27.66
64064;BME280;50314;50.618;10.642;2022-08-21T06:20:20;96789.22;;;22.25;27.51
64064;BME280;50314;50.618;10.642;2022-08-21T06:22:46;96790.50;;;22.29;27.58
64064;BME280;50314;50.618;10.642;2022-08-21T06:25:11;96785.63;;;22.33;27.17
64064;BME280;50314;50.618;10.642;2022-08-21T06:27:37;96781.53;;;22.37;27.25
64064;BME280;50314;50.618;10.642;2022-08-21T06:30:04;96786.34;;;22.42;27.45
64064;BME280;50314;50.618;10.642;2022-08-21T06:32:30;96791.16;;;22.46;27.15
64064;BME280;50314;50.618;10.642;2022-08-21T06:34:56;96787.91;;;22.51;27.30
64064;BME280;50314;50.618;10.642;2022-08-21T06:37:21;96785.50;;;22.56;27.46
64064;BME280;50314;50.618;10.642;2022-08-21T06:39:47;96788.28;;;22.63;27.38
64064;BME280;50314;50.618;10.642;2022-08-21T06:42:17;96781.50;;;22.67;27.44
64064;BME280;50314;50.618;10.642;2022-08-21T06:44:43;96778.69;;;22.75;26.94
64064;BME280;50314;50.618;10.642;2022-08-21T06:47:08;96779.59;;;22.82;26.95
64064;BME280;50314;50.618;10.642;2022-08-21T06:49:34;96776.84;;;22.90;27.43
64064;BME280;50314;50.618;10.642;2022-08-21T06:52:00;96778.59;;;22.98;27.12
64064;BME280;50314;50.618;10.642;2022-08-21T06:54:26;96775.75;;;23.06;26.82
64064;BME280;50314;50.618;10.642;2022-08-21T06:56:51;96775.66;;;23.14;27.15
64064;BME280;50314;50.618;10.642;2022-08-21T06:59:17;96771.81;;;23.24;26.94
64064;BME280;50314;50.618;10.642;2022-08-21T07:01:42;96776.03;;;23.33;27.29
64064;BME280;50314;50.618;10.642;2022-08-21T07:04:07;96775.72;;;23.42;26.84
64064;BME280;50314;50.618;10.642;2022-08-21T07:06:33;96772.94;;;23.51;26.95
64064;BME280;50314;50.618;10.642;2022-08-21T07:08:58;96775.47;;;23.59;26.74
64064;BME280;50314;50.618;10.642;2022-08-21T07:11:25;96772.63;;;23.67;26.92
64064;BME280;50314;50.618;10.642;2022-08-21T07:13:51;96774.16;;;23.76;26.82
64064;BME280;50314;50.618;10.642;2022-08-21T07:16:18;96771.31;;;23.84;26.79
64064;BME280;50314;50.618;10.642;2022-08-21T07:18:44;96770.34;;;23.92;26.99
64064;BME280;50314;50.618;10.642;2022-08-21T07:21:10;96773.72;;;24.01;26.63
64064;BME280;50314;50.618;10.642;2022-08-21T07:23:44;96765.91;;;24.06;26.82
64064;BME280;50314;50.618;10.642;2022-08-21T07:26:11;96767.03;;;24.18;26.85
64064;BME280;50314;50.618;10.642;2022-08-21T07:28:37;96762.28;;;24.27;26.72
64064;BME280;50314;50.618;10.642;2022-08-21T07:31:03;96760.28;;;24.35;26.94
64064;BME280;50314;50.618;10.642;2022-08-21T07:33:31;96762.78;;;24.44;26.70
64064;BME280;50314;50.618;10.642;2022-08-21T07:35:57;96762.03;;;24.50;26.90
64064;BME280;50314;50.618;10.642;2022-08-21T07:38:23;96749.22;;;24.58;26.79
64064;BME280;50314;50.618;10.642;2022-08-21T07:40:50;96755.25;;;24.67;27.03
64064;BME280;50314;50.618;10.642;2022-08-21T07:43:16;96755.09;;;24.75;26.71
64064;BME280;50314;50.618;10.642;2022-08-21T07:45:43;96750.31;;;24.77;26.73
64064;BME280;50314;50.618;10.642;2022-08-21T07:48:08;96757.38;;;24.92;26.31
64064;BME280;50314;50.618;10.642;2022-08-21T07:50:35;96758.25;;;24.99;26.46
64064;BME280;50314;50.618;10.642;2022-08-21T07:53:00;96748.34;;;25.06;26.36
64064;BME280;50314;50.618;10.642;2022-08-21T07:55:26;96747.50;;;25.12;26.41
64064;BME280;50314;50.618;10.642;2022-08-21T07:57:51;96745.28;;;25.22;26.40
64064;BME280;50314;50.618;10.642;2022-08-21T08:00:23;96740.09;;;25.27;26.40
64064;BME280;50314;50.618;10.642;2022-08-21T08:02:50;96740.72;;;25.36;26.24
64064;BME280;50314;50.618;10.642;2022-08-21T08:05:18;96741.31;;;25.45;26.25
64064;BME280;50314;50.618;10.642;2022-08-21T08:07:44;96743.66;;;25.54;26.22
64064;BME280;50314;50.618;10.642;2022-08-21T08:10:09;96735.78;;;25.66;25.89
64064;BME280;50314;50.618;10.642;2022-08-21T08:12:37;96739.47;;;25.78;25.63
64064;BME280;50314;50.618;10.642;2022-08-21T08:15:07;96742.81;;;25.81;25.77
64064;BME280;50314;50.618;10.642;2022-08-21T08:17:33;96730.34;;;25.79;25.65
64064;BME280;50314;50.618;10.642;2022-08-21T08:20:00;96734.09;;;25.78;25.40
64064;BME280;50314;50.618;10.642;2022-08-21T08:22:26;96724.91;;;25.93;25.00
64064;BME280;50314;50.618;10.642;2022-08-21T08:24:52;96729.31;;;25.87;24.87
64064;BME280;50314;50.618;10.642;2022-08-21T08:27:18;96726.81;;;25.86;24.43
64064;BME280;50314;50.618;10.642;2022-08-21T08:29:45;96723.91;;;25.81;24.20
64064;BME280;50314;50.618;10.642;2022-08-21T08:32:11;96722.47;;;25.78;24.52
64064;BME280;50314;50.618;10.642;2022-08-21T08:34:37;96719.34;;;25.74;24.35
64064;BME280;50314;50.618;10.642;2022-08-21T08:37:05;96718.72;;;25.72;24.44
64064;BME280;50314;50.618;10.642;2022-08-21T08:39:31;96725.16;;;25.71;24.33
64064;BME280;50314;50.618;10.642;2022-08-21T08:42:07;96720.59;;;25.65;24.37
64064;BME280;50314;50.618;10.642;2022-08-21T08:44:36;96718.31;;;25.69;24.14
64064;BME280;50314;50.618;10.642;2022-08-21T08:47:01;96716.44;;;25.63;24.40
64064;BME280;50314;50.618;10.642;2022-08-21T08:52:35;96718.75;;;25.52;24.01
64064;BME280;50314;50.618;10.642;2022-08-21T08:55:05;96721.25;;;25.54;24.29
64064;BME280;50314;50.618;10.642;2022-08-21T08:57:32;96715.41;;;25.50;24.17
64064;BME280;50314;50.618;10.642;2022-08-21T09:00:00;96714.41;;;25.51;23.99
64064;BME280;50314;50.618;10.642;2022-08-21T09:02:26;96720.19;;;25.55;24.25
64064;BME280;50314;50.618;10.642;2022-08-21T09:04:55;96710.84;;;25.51;24.04
64064;BME280;50314;50.618;10.642;2022-08-21T09:07:35;96722.88;;;25.42;24.03
64064;BME280;50314;50.618;10.642;2022-08-21T09:10:13;96722.28;;;25.40;23.80
64064;BME280;50314;50.618;10.642;2022-08-21T09:12:53;96717.06;;;25.31;23.53
64064;BME280;50314;50.618;10.642;2022-08-21T09:15:51;96716.66;;;25.21;23.80
64064;BME280;50314;50.618;10.642;2022-08-21T09:21:22;96705.47;;;25.24;23.85
64064;BME280;50314;50.618;10.642;2022-08-21T09:24:02;96705.03;;;25.27;23.80
64064;BME280;50314;50.618;10.642;2022-08-21T09:27:09;96704.81;;;25.29;23.84
64064;BME280;50314;50.618;10.642;2022-08-21T09:29:41;96708.16;;;25.38;23.62
64064;BME280;50314;50.618;10.642;2022-08-21T09:32:27;96703.81;;;25.37;23.47
64064;BME280;50314;50.618;10.642;2022-08-21T09:35:13;96699.88;;;25.39;23.51
64064;BME280;50314;50.618;10.642;2022-08-21T09:37:58;96707.53;;;25.36;23.37
64064;BME280;50314;50.618;10.642;2022-08-21T09:43:20;96702.16;;;25.22;22.79
64064;BME280;50314;50.618;10.642;2022-08-21T09:45:47;96700.47;;;25.21;22.76
64064;BME280;50314;50.618;10.642;2022-08-21T09:48:18;96709.38;;;25.22;22.69
64064;BME280;50314;50.618;10.642;2022-08-21T09:50:45;96701.94;;;25.24;22.94
64064;BME280;50314;50.618;10.642;2022-08-21T09:53:18;96703.81;;;25.23;22.92
64064;BME280;50314;50.618;10.642;2022-08-21T09:55:52;96698.00;;;25.26;23.23
64064;BME280;50314;50.618;10.642;2022-08-21T09:58:37;96691.78;;;25.26;23.16
64064;BME280;50314;50.618;10.642;2022-08-21T10:01:05;96693.84;;;25.30;22.85
64064;BME280;50314;50.618;10.642;2022-08-21T10:03:30;96699.25;;;25.30;22.98
64064;BME280;50314;50.618;10.642;2022-08-21T10:06:02;96690.13;;;25.31;22.48
64064;BME280;50314;50.618;10.642;2022-08-21T10:08:32;96691.97;;;25.38;22.70
64064;BME280;50314;50.618;10.642;2022-08-21T10:11:04;96689.28;;;25.38;22.99
64064;BME280;50314;50.618;10.642;2022-08-21T10:13:40;96683.47;;;25.41;22.76
64064;BME280;50314;50.618;10.642;2022-08-21T10:21:59;96683.06;;;25.50;22.33
64064;BME280;50314;50.618;10.642;2022-08-21T10:24:42;96685.78;;;25.57;22.72
64064;BME280;50314;50.618;10.642;2022-08-21T10:29:58;96678.69;;;25.63;21.69
64064;BME280;50314;50.618;10.642;2022-08-21T10:32:56;96689.69;;;25.68;21.61
64064;BME280;50314;50.618;10.642;2022-08-21T10:46:08;96680.38;;;25.70;21.19
64064;BME280;50314;50.618;10.642;2022-08-21T10:48:59;96679.94;;;25.73;20.61
64064;BME280;50314;50.618;10.642;2022-08-21T10:51:40;96681.78;;;25.73;20.67
64064;BME280;50314;50.618;10.642;2022-08-21T10:54:38;96673.94;;;25.71;20.67
64064;BME280;50314;50.618;10.642;2022-08-21T10:57:12;96672.47;;;25.75;20.84
64064;BME280;50314;50.618;10.642;2022-08-21T10:59:47;96678.09;;;25.74;20.99
64064;BME280;50314;50.618;10.642;2022-08-21T11:03:11;96676.84;;;25.63;20.83
64064;BME280;50314;50.618;10.642;2022-08-21T11:08:10;96668.94;;;25.68;20.41
64064;BME280;50314;50.618;10.642;2022-08-21T11:10:42;96671.00;;;25.73;20.64
64064;BME280;50314;50.618;10.642;2022-08-21T11:13:21;96676.22;;;25.74;20.34
64064;BME280;50314;50.618;10.642;2022-08-21T11:18:26;96676.63;;;25.78;20.41
64064;BME280;50314;50.618;10.642;2022-08-21T11:21:20;96669.59;;;25.70;20.30
64064;BME280;50314;50.618;10.642;2022-08-21T11:23:57;96665.66;;;25.66;20.48
64064;BME280;50314;50.618;10.642;2022-08-21T11:26:57;96675.19;;;25.62;20.23
64064;BME280;50314;50.618;10.642;2022-08-21T11:29:30;96665.03;;;25.64;20.41
64064;BME280;50314;50.618;10.642;2022-08-21T11:36:02;96664.81;;;25.59;20.23
64064;BME280;50314;50.618;10.642;2022-08-21T11:54:48;96658.16;;;25.48;20.25
64064;BME280;50314;50.618;10.642;2022-08-21T11:57:23;96661.50;;;25.50;20.35
64064;BME280;50314;50.618;10.642;2022-08-21T11:59:59;96655.09;;;25.51;20.27
64064;BME280;50314;50.618;10.642;2022-08-21T12:02:31;96651.56;;;25.58;20.11
64064;BME280;50314;50.618;10.642;2022-08-21T12:05:22;96643.66;;;25.49;20.07
64064;BME280;50314;50.618;10.642;2022-08-21T12:08:04;96648.19;;;25.49;20.12
64064;BME280;50314;50.618;10.642;2022-08-21T12:10:33;96648.19;;;25.49;20.40
64064;BME280;50314;50.618;10.642;2022-08-21T12:13:07;96649.66;;;25.45;20.54
64064;BME280;50314;50.618;10.642;2022-08-21T12:15:34;96654.66;;;25.48;21.02
64064;BME280;50314;50.618;10.642;2022-08-21T12:18:20;96650.72;;;25.44;20.57
64064;BME280;50314;50.618;10.642;2022-08-21T12:21:00;96645.75;;;25.41;20.72
64064;BME280;50314;50.618;10.642;2022-08-21T12:26:14;96648.63;;;25.46;20.43
64064;BME280;50314;50.618;10.642;2022-08-21T12:28:42;96648.44;;;25.54;20.38
64064;BME280;50314;50.618;10.642;2022-08-21T12:31:19;96648.19;;;25.49;20.56
64064;BME280;50314;50.618;10.642;2022-08-21T12:33:51;96640.34;;;25.47;20.06
64064;BME280;50314;50.618;10.642;2022-08-21T12:36:22;96642.22;;;25.47;20.34
64064;BME280;50314;50.618;10.642;2022-08-21T12:38:59;96638.06;;;25.44;20.47
64064;BME280;50314;50.618;10.642;2022-08-21T12:41:34;96640.75;;;25.38;19.64
64064;BME280;50314;50.618;10.642;2022-08-21T12:44:13;96643.88;;;25.35;19.68
64064;BME280;50314;50.618;10.642;2022-08-21T12:46:46;96644.28;;;25.31;20.16
64064;BME280;50314;50.618;10.642;2022-08-21T12:51:56;96623.34;;;25.34;19.96
64064;BME280;50314;50.618;10.642;2022-08-21T12:54:31;96624.16;;;25.41;19.89
64064;BME280;50314;50.618;10.642;2022-08-21T12:57:02;96617.94;;;25.47;20.19
64064;BME280;50314;50.618;10.642;2022-08-21T12:59:29;96619.19;;;25.51;20.17
64064;BME280;50314;50.618;10.642;2022-08-21T13:01:56;96618.78;;;25.54;20.55
64064;BME280;50314;50.618;10.642;2022-08-21T13:04:36;96615.03;;;25.55;20.39
64064;BME280;50314;50.618;10.642;2022-08-21T13:07:06;96608.81;;;25.61;20.11
64064;BME280;50314;50.618;10.642;2022-08-21T13:09:36;96615.44;;;25.65;20.24
64064;BME280;50314;50.618;10.642;2022-08-21T13:12:07;96623.34;;;25.67;20.09
64064;BME280;50314;50.618;10.642;2022-08-21T13:14:39;96618.97;;;25.66;20.01
64064;BME280;50314;50.618;10.642;2022-08-21T13:17:06;96625.81;;;25.68;19.89
64064;BME280;50314;50.618;10.642;2022-08-21T13:19:33;96619.34;;;25.69;19.84
64064;BME280;50314;50.618;10.642;2022-08-21T13:22:00;96625.38;;;25.71;19.60
64064;BME280;50314;50.618;10.642;2022-08-21T13:24:32;96620.00;;;25.71;19.57
64064;BME280;50314;50.618;10.642;2022-08-21T13:26:58;96612.53;;;25.73;19.92
64064;BME280;50314;50.618;10.642;2022-08-21T13:29:32;96624.13;;;25.74;19.59
64064;BME280;50314;50.618;10.642;2022-08-21T13:32:02;96619.16;;;25.77;19.46
64064;BME280;50314;50.618;10.642;2022-08-21T13:34:37;96615.63;;;25.77;19.10
64064;BME280;50314;50.618;10.642;2022-08-21T13:37:05;96605.84;;;25.83;19.76
64064;BME280;50314;50.618;10.642;2022-08-21T13:39:31;96612.91;;;25.84;19.32
64064;BME280;50314;50.618;10.642;2022-08-21T13:41:59;96601.06;;;25.85;19.32
64064;BME280;50314;50.618;10.642;2022-08-21T13:44:39;96612.50;;;25.80;19.13
64064;BME280;50314;50.618;10.642;2022-08-21T13:47:05;96608.13;;;25.79;19.21
64064;BME280;50314;50.618;10.642;2022-08-21T13:49:34;96604.81;;;25.84;19.39
64064;BME280;50314;50.618;10.642;2022-08-21T13:52:00;96598.78;;;25.82;19.33
64064;BME280;50314;50.618;10.642;2022-08-21T13:54:35;96598.81;;;25.75;19.38
64064;BME280;50314;50.618;10.642;2022-08-21T13:57:01;96598.16;;;25.79;19.27
64064;BME280;50314;50.618;10.642;2022-08-21T13:59:29;96616.84;;;25.81;19.19